Erskine, New Jersey
Current Conditions -  °F | °C
As of 6:53 PM on Tuesday 25 Nov 2014 (Local Time) from KCDW Reporting Station
Clear Clear  
Wind Chill: 45°   Ceiling: Unl
Heat Index: 45°   Visibility: 10mi
Dew Point: 30°   Wind: 0mph
Humidity: 56%   Direction: NA
Pressure: 30.07"   Gusts: NA
Location:  41.1036°N, 74.2801°W
Report Text: KCDW 252353Z 00000KT 10SM CLR 07/M01 A3007 RMK AO2 SLP187 T00721011 10117 20072 53022
Loading
Personal Weather Stations






























Interactive Weather Map New forecast layout! Learn more

10-Day Weather Forecast

Advertisements
Track Severe Weather on mobile